sensor_id;sensor_type;location;lat;lon;timestamp;P1;durP1;ratioP1;P2;durP2;ratioP2
75550;SDS011;65071;53.082;18.218;2023-06-22T00:02:19;10.40;;;8.10;;
75550;SDS011;65071;53.082;18.218;2023-06-22T00:04:45;10.40;;;8.20;;
75550;SDS011;65071;53.082;18.218;2023-06-22T00:07:12;10.40;;;8.00;;
75550;SDS011;65071;53.082;18.218;2023-06-22T00:09:38;10.00;;;8.30;;
75550;SDS011;65071;53.082;18.218;2023-06-22T00:12:05;11.60;;;8.50;;
75550;SDS011;65071;53.082;18.218;2023-06-22T00:14:32;10.60;;;8.50;;
75550;SDS011;65071;53.082;18.218;2023-06-22T00:16:58;11.90;;;9.40;;
75550;SDS011;65071;53.082;18.218;2023-06-22T00:19:25;11.00;;;8.20;;
75550;SDS011;65071;53.082;18.218;2023-06-22T00:21:52;12.80;;;9.40;;
75550;SDS011;65071;53.082;18.218;2023-06-22T00:24:20;12.90;;;9.30;;
75550;SDS011;65071;53.082;18.218;2023-06-22T00:26:47;12.90;;;10.10;;
75550;SDS011;65071;53.082;18.218;2023-06-22T00:29:14;14.60;;;10.40;;
75550;SDS011;65071;53.082;18.218;2023-06-22T00:31:41;11.40;;;9.20;;
75550;SDS011;65071;53.082;18.218;2023-06-22T00:34:07;14.60;;;10.30;;
75550;SDS011;65071;53.082;18.218;2023-06-22T00:36:35;12.40;;;10.10;;
75550;SDS011;65071;53.082;18.218;2023-06-22T00:39:03;12.30;;;9.80;;
75550;SDS011;65071;53.082;18.218;2023-06-22T00:41:30;15.10;;;9.80;;
75550;SDS011;65071;53.082;18.218;2023-06-22T00:43:57;13.40;;;10.10;;
75550;SDS011;65071;53.082;18.218;2023-06-22T00:46:24;12.50;;;9.10;;
75550;SDS011;65071;53.082;18.218;2023-06-22T00:48:51;10.20;;;9.10;;
75550;SDS011;65071;53.082;18.218;2023-06-22T00:51:18;12.80;;;8.80;;
75550;SDS011;65071;53.082;18.218;2023-06-22T00:53:50;11.90;;;9.30;;
75550;SDS011;65071;53.082;18.218;2023-06-22T00:56:18;10.80;;;8.50;;
75550;SDS011;65071;53.082;18.218;2023-06-22T00:58:46;9.60;;;7.90;;
75550;SDS011;65071;53.082;18.218;2023-06-22T01:01:13;11.80;;;8.00;;
75550;SDS011;65071;53.082;18.218;2023-06-22T01:03:40;13.40;;;8.80;;
75550;SDS011;65071;53.082;18.218;2023-06-22T01:06:08;9.70;;;8.50;;
75550;SDS011;65071;53.082;18.218;2023-06-22T01:11:13;12.20;;;8.20;;
75550;SDS011;65071;53.082;18.218;2023-06-22T01:16:35;11.40;;;8.60;;
75550;SDS011;65071;53.082;18.218;2023-06-22T01:19:17;10.20;;;8.30;;
75550;SDS011;65071;53.082;18.218;2023-06-22T01:21:54;11.30;;;8.10;;
75550;SDS011;65071;53.082;18.218;2023-06-22T01:24:23;9.50;;;7.80;;
75550;SDS011;65071;53.082;18.218;2023-06-22T01:29:28;9.80;;;7.60;;
75550;SDS011;65071;53.082;18.218;2023-06-22T01:31:56;8.50;;;7.00;;
75550;SDS011;65071;53.082;18.218;2023-06-22T01:34:23;9.00;;;7.00;;
75550;SDS011;65071;53.082;18.218;2023-06-22T01:36:51;9.40;;;6.80;;
75550;SDS011;65071;53.082;18.218;2023-06-22T01:39:19;8.80;;;6.40;;
75550;SDS011;65071;53.082;18.218;2023-06-22T01:41:47;7.00;;;5.50;;
75550;SDS011;65071;53.082;18.218;2023-06-22T01:44:15;7.00;;;5.00;;
75550;SDS011;65071;53.082;18.218;2023-06-22T01:46:43;8.20;;;5.80;;
75550;SDS011;65071;53.082;18.218;2023-06-22T01:49:10;6.60;;;5.40;;
75550;SDS011;65071;53.082;18.218;2023-06-22T01:51:37;6.70;;;5.80;;
75550;SDS011;65071;53.082;18.218;2023-06-22T01:54:05;8.50;;;6.00;;
75550;SDS011;65071;53.082;18.218;2023-06-22T01:59:00;9.80;;;5.50;;
75550;SDS011;65071;53.082;18.218;2023-06-22T02:01:37;10.00;;;5.90;;
75550;SDS011;65071;53.082;18.218;2023-06-22T02:04:23;7.40;;;5.40;;
75550;SDS011;65071;53.082;18.218;2023-06-22T02:06:55;8.20;;;5.70;;
75550;SDS011;65071;53.082;18.218;2023-06-22T02:09:24;7.50;;;5.80;;
75550;SDS011;65071;53.082;18.218;2023-06-22T02:11:55;8.90;;;5.80;;
75550;SDS011;65071;53.082;18.218;2023-06-22T02:14:23;8.40;;;6.00;;
75550;SDS011;65071;53.082;18.218;2023-06-22T02:16:51;7.00;;;5.80;;
75550;SDS011;65071;53.082;18.218;2023-06-22T02:19:23;7.00;;;5.70;;
75550;SDS011;65071;53.082;18.218;2023-06-22T02:21:51;8.70;;;5.50;;
75550;SDS011;65071;53.082;18.218;2023-06-22T02:24:17;9.30;;;6.30;;
75550;SDS011;65071;53.082;18.218;2023-06-22T02:26:44;9.30;;;6.60;;
75550;SDS011;65071;53.082;18.218;2023-06-22T02:29:11;9.70;;;6.50;;
75550;SDS011;65071;53.082;18.218;2023-06-22T02:31:38;9.30;;;6.40;;
75550;SDS011;65071;53.082;18.218;2023-06-22T02:34:05;8.80;;;5.70;;
75550;SDS011;65071;53.082;18.218;2023-06-22T02:36:32;5.80;;;4.80;;
75550;SDS011;65071;53.082;18.218;2023-06-22T02:39:00;7.30;;;5.20;;
75550;SDS011;65071;53.082;18.218;2023-06-22T02:41:27;10.80;;;4.80;;
75550;SDS011;65071;53.082;18.218;2023-06-22T02:43:56;6.80;;;5.20;;
75550;SDS011;65071;53.082;18.218;2023-06-22T02:46:23;6.50;;;4.90;;
75550;SDS011;65071;53.082;18.218;2023-06-22T02:48:49;6.00;;;4.70;;
75550;SDS011;65071;53.082;18.218;2023-06-22T02:51:16;7.90;;;4.50;;
75550;SDS011;65071;53.082;18.218;2023-06-22T02:53:43;7.00;;;4.90;;
75550;SDS011;65071;53.082;18.218;2023-06-22T02:56:12;6.60;;;5.00;;
75550;SDS011;65071;53.082;18.218;2023-06-22T02:58:39;7.90;;;5.10;;
75550;SDS011;65071;53.082;18.218;2023-06-22T03:03:37;8.30;;;5.30;;
75550;SDS011;65071;53.082;18.218;2023-06-22T03:06:05;7.10;;;5.00;;
75550;SDS011;65071;53.082;18.218;2023-06-22T03:08:32;5.90;;;5.20;;
75550;SDS011;65071;53.082;18.218;2023-06-22T03:10:58;7.80;;;5.00;;
75550;SDS011;65071;53.082;18.218;2023-06-22T03:13:25;7.40;;;5.20;;
75550;SDS011;65071;53.082;18.218;2023-06-22T03:15:51;8.00;;;5.20;;
75550;SDS011;65071;53.082;18.218;2023-06-22T03:18:18;5.90;;;4.00;;
75550;SDS011;65071;53.082;18.218;2023-06-22T03:20:45;7.30;;;4.60;;
75550;SDS011;65071;53.082;18.218;2023-06-22T03:23:11;6.20;;;4.90;;
75550;SDS011;65071;53.082;18.218;2023-06-22T03:25:38;5.80;;;4.20;;
75550;SDS011;65071;53.082;18.218;2023-06-22T03:28:05;6.30;;;4.40;;
75550;SDS011;65071;53.082;18.218;2023-06-22T03:30:32;5.90;;;4.20;;
75550;SDS011;65071;53.082;18.218;2023-06-22T03:33:00;6.70;;;4.50;;
75550;SDS011;65071;53.082;18.218;2023-06-22T03:35:27;5.60;;;3.70;;
75550;SDS011;65071;53.082;18.218;2023-06-22T03:37:54;7.90;;;4.10;;
75550;SDS011;65071;53.082;18.218;2023-06-22T03:40:20;5.00;;;4.20;;
75550;SDS011;65071;53.082;18.218;2023-06-22T03:42:47;6.00;;;3.70;;
75550;SDS011;65071;53.082;18.218;2023-06-22T03:45:14;4.20;;;3.60;;
75550;SDS011;65071;53.082;18.218;2023-06-22T03:47:41;5.90;;;4.00;;
75550;SDS011;65071;53.082;18.218;2023-06-22T03:50:07;4.50;;;3.60;;
75550;SDS011;65071;53.082;18.218;2023-06-22T03:52:35;5.20;;;3.60;;
75550;SDS011;65071;53.082;18.218;2023-06-22T03:55:01;4.80;;;3.90;;
75550;SDS011;65071;53.082;18.218;2023-06-22T03:57:28;4.90;;;3.40;;
75550;SDS011;65071;53.082;18.218;2023-06-22T03:59:56;5.30;;;3.60;;
75550;SDS011;65071;53.082;18.218;2023-06-22T04:02:23;3.20;;;2.90;;
75550;SDS011;65071;53.082;18.218;2023-06-22T04:04:50;5.00;;;3.40;;
75550;SDS011;65071;53.082;18.218;2023-06-22T04:07:18;4.20;;;3.30;;
75550;SDS011;65071;53.082;18.218;2023-06-22T04:09:45;5.20;;;3.10;;
75550;SDS011;65071;53.082;18.218;2023-06-22T04:12:11;4.30;;;3.40;;
75550;SDS011;65071;53.082;18.218;2023-06-22T04:14:38;4.20;;;3.10;;
75550;SDS011;65071;53.082;18.218;2023-06-22T04:17:05;7.10;;;3.90;;
75550;SDS011;65071;53.082;18.218;2023-06-22T04:19:31;5.60;;;3.40;;
75550;SDS011;65071;53.082;18.218;2023-06-22T04:21:58;5.50;;;3.70;;
75550;SDS011;65071;53.082;18.218;2023-06-22T04:24:24;5.40;;;3.30;;
75550;SDS011;65071;53.082;18.218;2023-06-22T04:26:51;6.30;;;3.70;;
75550;SDS011;65071;53.082;18.218;2023-06-22T04:29:21;6.80;;;3.30;;
75550;SDS011;65071;53.082;18.218;2023-06-22T04:31:54;5.30;;;3.20;;
75550;SDS011;65071;53.082;18.218;2023-06-22T04:34:22;5.80;;;3.10;;
75550;SDS011;65071;53.082;18.218;2023-06-22T04:36:48;4.10;;;3.70;;
75550;SDS011;65071;53.082;18.218;2023-06-22T04:39:15;6.30;;;3.40;;
75550;SDS011;65071;53.082;18.218;2023-06-22T04:41:41;4.00;;;3.60;;
75550;SDS011;65071;53.082;18.218;2023-06-22T04:44:15;4.70;;;3.50;;
75550;SDS011;65071;53.082;18.218;2023-06-22T04:46:53;4.30;;;3.60;;
75550;SDS011;65071;53.082;18.218;2023-06-22T04:49:26;7.00;;;3.70;;
75550;SDS011;65071;53.082;18.218;2023-06-22T04:52:01;6.80;;;3.30;;
75550;SDS011;65071;53.082;18.218;2023-06-22T04:54:28;6.50;;;2.90;;
75550;SDS011;65071;53.082;18.218;2023-06-22T04:56:55;5.80;;;3.60;;
75550;SDS011;65071;53.082;18.218;2023-06-22T04:59:26;3.90;;;3.00;;
75550;SDS011;65071;53.082;18.218;2023-06-22T05:01:56;6.20;;;3.90;;
75550;SDS011;65071;53.082;18.218;2023-06-22T05:04:24;4.50;;;3.20;;
75550;SDS011;65071;53.082;18.218;2023-06-22T05:06:52;3.30;;;2.80;;
75550;SDS011;65071;53.082;18.218;2023-06-22T05:09:18;5.10;;;3.60;;
75550;SDS011;65071;53.082;18.218;2023-06-22T05:11:45;5.30;;;3.30;;
75550;SDS011;65071;53.082;18.218;2023-06-22T05:14:13;4.10;;;2.70;;
75550;SDS011;65071;53.082;18.218;2023-06-22T05:16:43;5.30;;;3.40;;
75550;SDS011;65071;53.082;18.218;2023-06-22T05:19:10;5.40;;;3.10;;
75550;SDS011;65071;53.082;18.218;2023-06-22T05:21:37;4.40;;;3.40;;
75550;SDS011;65071;53.082;18.218;2023-06-22T05:24:04;4.90;;;3.10;;
75550;SDS011;65071;53.082;18.218;2023-06-22T05:26:32;5.00;;;3.10;;
75550;SDS011;65071;53.082;18.218;2023-06-22T05:29:00;4.60;;;3.40;;
75550;SDS011;65071;53.082;18.218;2023-06-22T05:31:28;5.20;;;3.10;;
75550;SDS011;65071;53.082;18.218;2023-06-22T05:33:55;4.60;;;3.30;;
75550;SDS011;65071;53.082;18.218;2023-06-22T05:36:22;5.10;;;3.00;;
75550;SDS011;65071;53.082;18.218;2023-06-22T05:38:52;5.60;;;3.40;;
75550;SDS011;65071;53.082;18.218;2023-06-22T05:41:19;3.50;;;2.60;;
75550;SDS011;65071;53.082;18.218;2023-06-22T05:43:46;4.60;;;3.40;;
75550;SDS011;65071;53.082;18.218;2023-06-22T05:46:12;4.90;;;3.10;;
75550;SDS011;65071;53.082;18.218;2023-06-22T05:48:39;4.60;;;3.00;;
75550;SDS011;65071;53.082;18.218;2023-06-22T05:51:05;5.40;;;3.30;;
75550;SDS011;65071;53.082;18.218;2023-06-22T05:53:32;6.30;;;3.10;;
75550;SDS011;65071;53.082;18.218;2023-06-22T05:55:59;4.70;;;3.40;;
75550;SDS011;65071;53.082;18.218;2023-06-22T05:58:26;4.90;;;3.50;;
75550;SDS011;65071;53.082;18.218;2023-06-22T06:00:52;6.30;;;2.90;;
75550;SDS011;65071;53.082;18.218;2023-06-22T06:03:19;3.30;;;2.60;;
75550;SDS011;65071;53.082;18.218;2023-06-22T06:05:45;5.60;;;3.00;;
75550;SDS011;65071;53.082;18.218;2023-06-22T06:08:12;4.50;;;3.00;;
75550;SDS011;65071;53.082;18.218;2023-06-22T06:10:38;3.60;;;3.00;;
75550;SDS011;65071;53.082;18.218;2023-06-22T06:13:05;4.40;;;2.80;;
75550;SDS011;65071;53.082;18.218;2023-06-22T06:15:32;5.50;;;2.80;;
75550;SDS011;65071;53.082;18.218;2023-06-22T06:18:00;5.40;;;3.40;;
75550;SDS011;65071;53.082;18.218;2023-06-22T06:20:28;4.00;;;2.50;;
75550;SDS011;65071;53.082;18.218;2023-06-22T06:22:54;3.20;;;2.70;;
75550;SDS011;65071;53.082;18.218;2023-06-22T06:25:21;4.70;;;2.70;;
75550;SDS011;65071;53.082;18.218;2023-06-22T06:27:49;5.40;;;2.80;;
75550;SDS011;65071;53.082;18.218;2023-06-22T06:32:46;5.30;;;2.80;;
75550;SDS011;65071;53.082;18.218;2023-06-22T06:35:13;6.30;;;2.60;;
75550;SDS011;65071;53.082;18.218;2023-06-22T06:37:44;3.60;;;2.70;;
75550;SDS011;65071;53.082;18.218;2023-06-22T06:40:14;6.00;;;2.50;;
75550;SDS011;65071;53.082;18.218;2023-06-22T06:42:43;3.70;;;2.90;;
75550;SDS011;65071;53.082;18.218;2023-06-22T06:45:18;4.00;;;2.60;;
75550;SDS011;65071;53.082;18.218;2023-06-22T06:47:48;3.90;;;2.40;;
75550;SDS011;65071;53.082;18.218;2023-06-22T06:50:16;2.90;;;2.50;;
75550;SDS011;65071;53.082;18.218;2023-06-22T06:52:44;4.40;;;2.50;;
75550;SDS011;65071;53.082;18.218;2023-06-22T06:55:10;3.60;;;2.00;;
75550;SDS011;65071;53.082;18.218;2023-06-22T06:57:40;3.80;;;2.30;;
75550;SDS011;65071;53.082;18.218;2023-06-22T07:00:09;4.20;;;2.60;;
75550;SDS011;65071;53.082;18.218;2023-06-22T07:02:40;2.50;;;2.20;;
75550;SDS011;65071;53.082;18.218;2023-06-22T07:05:22;2.80;;;2.00;;
75550;SDS011;65071;53.082;18.218;2023-06-22T07:07:49;3.40;;;2.30;;
75550;SDS011;65071;53.082;18.218;2023-06-22T07:10:16;3.10;;;2.10;;
75550;SDS011;65071;53.082;18.218;2023-06-22T07:12:42;4.40;;;2.50;;
75550;SDS011;65071;53.082;18.218;2023-06-22T07:15:09;3.90;;;2.00;;
75550;SDS011;65071;53.082;18.218;2023-06-22T07:20:07;3.10;;;1.70;;
75550;SDS011;65071;53.082;18.218;2023-06-22T07:22:42;3.30;;;2.00;;
75550;SDS011;65071;53.082;18.218;2023-06-22T07:25:11;2.50;;;1.80;;
75550;SDS011;65071;53.082;18.218;2023-06-22T07:27:44;3.00;;;2.00;;
75550;SDS011;65071;53.082;18.218;2023-06-22T07:30:24;3.00;;;2.20;;
75550;SDS011;65071;53.082;18.218;2023-06-22T07:32:51;2.90;;;1.50;;
75550;SDS011;65071;53.082;18.218;2023-06-22T07:35:17;2.40;;;1.50;;
75550;SDS011;65071;53.082;18.218;2023-06-22T07:37:44;2.90;;;1.60;;
75550;SDS011;65071;53.082;18.218;2023-06-22T07:40:11;2.70;;;1.80;;
75550;SDS011;65071;53.082;18.218;2023-06-22T07:42:38;3.20;;;1.50;;
75550;SDS011;65071;53.082;18.218;2023-06-22T07:45:05;3.20;;;1.70;;
75550;SDS011;65071;53.082;18.218;2023-06-22T07:47:36;4.00;;;2.10;;
75550;SDS011;65071;53.082;18.218;2023-06-22T07:50:03;2.80;;;1.70;;
75550;SDS011;65071;53.082;18.218;2023-06-22T07:52:31;2.10;;;1.80;;
75550;SDS011;65071;53.082;18.218;2023-06-22T07:54:58;2.10;;;1.90;;
75550;SDS011;65071;53.082;18.218;2023-06-22T07:57:25;2.50;;;1.70;;
75550;SDS011;65071;53.082;18.218;2023-06-22T08:00:00;3.50;;;1.70;;
75550;SDS011;65071;53.082;18.218;2023-06-22T08:02:39;2.30;;;1.50;;
75550;SDS011;65071;53.082;18.218;2023-06-22T08:05:07;3.90;;;1.80;;
75550;SDS011;65071;53.082;18.218;2023-06-22T08:07:35;3.30;;;1.90;;
75550;SDS011;65071;53.082;18.218;2023-06-22T08:10:04;2.60;;;1.50;;
75550;SDS011;65071;53.082;18.218;2023-06-22T08:12:31;2.50;;;1.60;;
75550;SDS011;65071;53.082;18.218;2023-06-22T08:14:58;1.60;;;1.40;;
75550;SDS011;65071;53.082;18.218;2023-06-22T08:17:27;4.30;;;1.80;;
75550;SDS011;65071;53.082;18.218;2023-06-22T08:19:55;3.00;;;1.70;;
75550;SDS011;65071;53.082;18.218;2023-06-22T08:22:23;2.10;;;1.30;;
75550;SDS011;65071;53.082;18.218;2023-06-22T08:24:50;1.80;;;1.60;;
75550;SDS011;65071;53.082;18.218;2023-06-22T08:27:17;2.60;;;1.90;;
75550;SDS011;65071;53.082;18.218;2023-06-22T08:29:47;3.10;;;1.50;;
75550;SDS011;65071;53.082;18.218;2023-06-22T08:32:17;2.80;;;1.50;;
75550;SDS011;65071;53.082;18.218;2023-06-22T08:34:45;2.40;;;1.70;;
75550;SDS011;65071;53.082;18.218;2023-06-22T08:37:12;3.00;;;1.90;;
75550;SDS011;65071;53.082;18.218;2023-06-22T08:39:39;2.60;;;1.60;;
75550;SDS011;65071;53.082;18.218;2023-06-22T08:42:05;2.20;;;1.50;;
75550;SDS011;65071;53.082;18.218;2023-06-22T08:44:32;1.40;;;1.30;;
75550;SDS011;65071;53.082;18.218;2023-06-22T08:46:59;1.60;;;1.40;;
75550;SDS011;65071;53.082;18.218;2023-06-22T08:49:26;2.10;;;1.70;;
75550;SDS011;65071;53.082;18.218;2023-06-22T08:51:53;5.60;;;1.70;;
75550;SDS011;65071;53.082;18.218;2023-06-22T08:56:49;3.40;;;1.80;;
75550;SDS011;65071;53.082;18.218;2023-06-22T08:59:15;2.50;;;1.80;;
75550;SDS011;65071;53.082;18.218;2023-06-22T09:01:42;5.30;;;1.60;;
75550;SDS011;65071;53.082;18.218;2023-06-22T09:04:11;2.70;;;1.70;;
75550;SDS011;65071;53.082;18.218;2023-06-22T09:06:38;2.10;;;1.40;;
75550;SDS011;65071;53.082;18.218;2023-06-22T09:09:11;2.10;;;1.60;;
75550;SDS011;65071;53.082;18.218;2023-06-22T09:11:39;2.30;;;1.50;;
75550;SDS011;65071;53.082;18.218;2023-06-22T09:14:05;3.00;;;1.40;;
75550;SDS011;65071;53.082;18.218;2023-06-22T09:16:33;2.70;;;1.50;;
75550;SDS011;65071;53.082;18.218;2023-06-22T09:19:00;2.10;;;1.80;;
75550;SDS011;65071;53.082;18.218;2023-06-22T09:21:27;3.70;;;1.50;;
75550;SDS011;65071;53.082;18.218;2023-06-22T09:23:54;2.80;;;1.90;;
75550;SDS011;65071;53.082;18.218;2023-06-22T09:26:20;2.80;;;1.80;;
75550;SDS011;65071;53.082;18.218;2023-06-22T09:28:47;1.50;;;1.30;;
75550;SDS011;65071;53.082;18.218;2023-06-22T09:31:14;2.70;;;1.80;;
75550;SDS011;65071;53.082;18.218;2023-06-22T09:36:09;2.70;;;1.70;;
75550;SDS011;65071;53.082;18.218;2023-06-22T09:38:38;1.40;;;1.30;;
75550;SDS011;65071;53.082;18.218;2023-06-22T09:41:05;2.10;;;1.70;;
75550;SDS011;65071;53.082;18.218;2023-06-22T09:43:32;3.50;;;2.00;;
75550;SDS011;65071;53.082;18.218;2023-06-22T09:46:01;2.10;;;1.90;;
75550;SDS011;65071;53.082;18.218;2023-06-22T09:48:28;2.80;;;2.00;;
75550;SDS011;65071;53.082;18.218;2023-06-22T09:50:56;2.20;;;1.80;;
75550;SDS011;65071;53.082;18.218;2023-06-22T09:53:23;2.80;;;1.80;;
75550;SDS011;65071;53.082;18.218;2023-06-22T09:55:53;2.70;;;1.50;;
75550;SDS011;65071;53.082;18.218;2023-06-22T09:58:19;1.80;;;1.40;;
75550;SDS011;65071;53.082;18.218;2023-06-22T10:00:46;3.40;;;1.80;;
75550;SDS011;65071;53.082;18.218;2023-06-22T10:03:13;2.20;;;1.50;;
75550;SDS011;65071;53.082;18.218;2023-06-22T10:05:39;2.20;;;1.80;;
75550;SDS011;65071;53.082;18.218;2023-06-22T10:08:06;4.60;;;1.70;;
75550;SDS011;65071;53.082;18.218;2023-06-22T10:10:33;1.90;;;1.70;;
75550;SDS011;65071;53.082;18.218;2023-06-22T10:13:02;1.70;;;1.30;;
75550;SDS011;65071;53.082;18.218;2023-06-22T10:15:35;3.00;;;1.30;;
75550;SDS011;65071;53.082;18.218;2023-06-22T10:18:02;2.00;;;1.70;;
75550;SDS011;65071;53.082;18.218;2023-06-22T10:20:29;2.90;;;1.60;;
75550;SDS011;65071;53.082;18.218;2023-06-22T10:22:55;3.30;;;1.80;;
75550;SDS011;65071;53.082;18.218;2023-06-22T10:25:22;1.70;;;1.50;;
75550;SDS011;65071;53.082;18.218;2023-06-22T10:27:48;2.60;;;1.70;;
75550;SDS011;65071;53.082;18.218;2023-06-22T10:30:15;2.30;;;1.70;;
75550;SDS011;65071;53.082;18.218;2023-06-22T10:32:42;3.00;;;1.50;;
75550;SDS011;65071;53.082;18.218;2023-06-22T10:35:09;5.80;;;1.50;;
75550;SDS011;65071;53.082;18.218;2023-06-22T10:37:39;2.20;;;1.30;;
75550;SDS011;65071;53.082;18.218;2023-06-22T10:40:06;2.10;;;1.40;;
75550;SDS011;65071;53.082;18.218;2023-06-22T10:42:34;2.30;;;1.90;;
75550;SDS011;65071;53.082;18.218;2023-06-22T10:45:01;3.90;;;1.60;;
75550;SDS011;65071;53.082;18.218;2023-06-22T10:47:27;2.30;;;1.60;;
75550;SDS011;65071;53.082;18.218;2023-06-22T10:49:54;2.30;;;1.70;;
75550;SDS011;65071;53.082;18.218;2023-06-22T10:52:20;2.20;;;1.60;;
75550;SDS011;65071;53.082;18.218;2023-06-22T10:54:47;2.70;;;1.50;;
75550;SDS011;65071;53.082;18.218;2023-06-22T10:57:13;1.80;;;1.50;;
75550;SDS011;65071;53.082;18.218;2023-06-22T10:59:40;2.80;;;1.40;;
75550;SDS011;65071;53.082;18.218;2023-06-22T11:02:06;2.30;;;1.70;;
75550;SDS011;65071;53.082;18.218;2023-06-22T11:04:33;2.80;;;1.70;;
75550;SDS011;65071;53.082;18.218;2023-06-22T11:07:00;2.10;;;1.40;;
75550;SDS011;65071;53.082;18.218;2023-06-22T11:09:26;2.20;;;1.60;;
75550;SDS011;65071;53.082;18.218;2023-06-22T11:11:53;2.60;;;1.50;;
75550;SDS011;65071;53.082;18.218;2023-06-22T11:14:19;2.30;;;1.60;;
75550;SDS011;65071;53.082;18.218;2023-06-22T11:16:46;2.20;;;1.70;;
75550;SDS011;65071;53.082;18.218;2023-06-22T11:19:13;1.60;;;1.30;;
75550;SDS011;65071;53.082;18.218;2023-06-22T11:21:39;2.30;;;1.50;;
75550;SDS011;65071;53.082;18.218;2023-06-22T11:24:06;4.50;;;1.70;;
75550;SDS011;65071;53.082;18.218;2023-06-22T11:26:32;2.30;;;1.60;;
75550;SDS011;65071;53.082;18.218;2023-06-22T11:28:59;2.70;;;1.60;;
75550;SDS011;65071;53.082;18.218;2023-06-22T11:31:26;2.30;;;1.90;;
75550;SDS011;65071;53.082;18.218;2023-06-22T11:33:52;2.90;;;2.00;;
75550;SDS011;65071;53.082;18.218;2023-06-22T11:36:19;2.80;;;2.10;;
75550;SDS011;65071;53.082;18.218;2023-06-22T11:38:46;4.10;;;1.90;;
75550;SDS011;65071;53.082;18.218;2023-06-22T11:41:12;2.10;;;1.90;;
75550;SDS011;65071;53.082;18.218;2023-06-22T11:43:39;1.80;;;1.50;;
75550;SDS011;65071;53.082;18.218;2023-06-22T11:46:05;2.30;;;1.80;;
75550;SDS011;65071;53.082;18.218;2023-06-22T11:48:32;2.70;;;1.70;;
75550;SDS011;65071;53.082;18.218;2023-06-22T11:50:59;3.10;;;1.70;;
75550;SDS011;65071;53.082;18.218;2023-06-22T11:53:26;1.70;;;1.50;;
75550;SDS011;65071;53.082;18.218;2023-06-22T11:55:53;2.50;;;1.90;;
75550;SDS011;65071;53.082;18.218;2023-06-22T11:58:21;2.50;;;2.00;;
75550;SDS011;65071;53.082;18.218;2023-06-22T12:00:48;2.20;;;1.40;;
75550;SDS011;65071;53.082;18.218;2023-06-22T12:03:16;2.10;;;1.70;;
75550;SDS011;65071;53.082;18.218;2023-06-22T12:05:43;2.50;;;1.50;;
75550;SDS011;65071;53.082;18.218;2023-06-22T12:08:09;1.40;;;1.30;;
75550;SDS011;65071;53.082;18.218;2023-06-22T12:10:36;2.30;;;1.40;;
75550;SDS011;65071;53.082;18.218;2023-06-22T12:13:03;3.40;;;2.00;;
75550;SDS011;65071;53.082;18.218;2023-06-22T12:15:29;2.20;;;1.30;;
75550;SDS011;65071;53.082;18.218;2023-06-22T12:17:56;2.30;;;1.40;;
75550;SDS011;65071;53.082;18.218;2023-06-22T12:20:22;2.20;;;1.40;;
75550;SDS011;65071;53.082;18.218;2023-06-22T12:22:49;2.70;;;1.60;;
75550;SDS011;65071;53.082;18.218;2023-06-22T12:25:18;2.00;;;1.50;;
75550;SDS011;65071;53.082;18.218;2023-06-22T12:27:44;2.50;;;1.40;;
75550;SDS011;65071;53.082;18.218;2023-06-22T12:30:11;2.60;;;1.90;;
75550;SDS011;65071;53.082;18.218;2023-06-22T12:32:37;2.90;;;1.50;;
75550;SDS011;65071;53.082;18.218;2023-06-22T12:35:04;2.10;;;1.50;;
75550;SDS011;65071;53.082;18.218;2023-06-22T12:37:30;2.10;;;1.30;;
75550;SDS011;65071;53.082;18.218;2023-06-22T12:39:58;2.00;;;1.30;;
75550;SDS011;65071;53.082;18.218;2023-06-22T12:42:24;2.20;;;1.50;;
75550;SDS011;65071;53.082;18.218;2023-06-22T12:44:52;2.30;;;1.80;;
75550;SDS011;65071;53.082;18.218;2023-06-22T12:47:18;2.90;;;1.60;;
75550;SDS011;65071;53.082;18.218;2023-06-22T12:49:46;1.70;;;1.60;;
75550;SDS011;65071;53.082;18.218;2023-06-22T12:52:12;2.20;;;1.40;;
75550;SDS011;65071;53.082;18.218;2023-06-22T12:54:39;2.00;;;1.60;;
75550;SDS011;65071;53.082;18.218;2023-06-22T12:57:06;2.90;;;1.70;;
75550;SDS011;65071;53.082;18.218;2023-06-22T12:59:32;2.00;;;1.30;;
75550;SDS011;65071;53.082;18.218;2023-06-22T13:01:59;2.10;;;1.50;;
75550;SDS011;65071;53.082;18.218;2023-06-22T13:04:25;1.80;;;1.40;;
75550;SDS011;65071;53.082;18.218;2023-06-22T13:06:52;2.70;;;1.50;;
75550;SDS011;65071;53.082;18.218;2023-06-22T13:09:18;4.00;;;1.80;;
75550;SDS011;65071;53.082;18.218;2023-06-22T13:11:45;1.90;;;1.50;;
75550;SDS011;65071;53.082;18.218;2023-06-22T13:14:12;1.60;;;1.50;;
75550;SDS011;65071;53.082;18.218;2023-06-22T13:16:38;2.90;;;1.70;;
75550;SDS011;65071;53.082;18.218;2023-06-22T13:19:05;2.40;;;1.50;;
75550;SDS011;65071;53.082;18.218;2023-06-22T13:21:31;1.60;;;1.30;;
75550;SDS011;65071;53.082;18.218;2023-06-22T13:23:58;2.10;;;1.50;;
75550;SDS011;65071;53.082;18.218;2023-06-22T13:26:25;2.30;;;1.60;;
75550;SDS011;65071;53.082;18.218;2023-06-22T13:28:52;1.30;;;1.20;;
75550;SDS011;65071;53.082;18.218;2023-06-22T13:31:18;2.60;;;1.60;;
75550;SDS011;65071;53.082;18.218;2023-06-22T13:33:45;1.90;;;1.40;;
75550;SDS011;65071;53.082;18.218;2023-06-22T13:36:14;2.40;;;1.40;;
75550;SDS011;65071;53.082;18.218;2023-06-22T13:38:40;3.20;;;1.70;;
75550;SDS011;65071;53.082;18.218;2023-06-22T13:41:07;1.80;;;1.50;;
75550;SDS011;65071;53.082;18.218;2023-06-22T13:43:33;2.00;;;1.60;;
75550;SDS011;65071;53.082;18.218;2023-06-22T13:46:00;1.90;;;1.70;;
75550;SDS011;65071;53.082;18.218;2023-06-22T13:48:27;3.10;;;1.80;;
75550;SDS011;65071;53.082;18.218;2023-06-22T13:50:54;3.00;;;1.70;;
75550;SDS011;65071;53.082;18.218;2023-06-22T13:53:21;2.60;;;1.80;;
75550;SDS011;65071;53.082;18.218;2023-06-22T13:55:47;1.90;;;1.60;;
75550;SDS011;65071;53.082;18.218;2023-06-22T13:58:15;3.40;;;1.60;;
75550;SDS011;65071;53.082;18.218;2023-06-22T14:00:42;2.20;;;1.50;;
75550;SDS011;65071;53.082;18.218;2023-06-22T14:03:08;1.60;;;1.30;;
75550;SDS011;65071;53.082;18.218;2023-06-22T14:05:35;1.70;;;1.50;;
75550;SDS011;65071;53.082;18.218;2023-06-22T14:08:01;1.70;;;1.10;;
75550;SDS011;65071;53.082;18.218;2023-06-22T14:10:28;3.30;;;1.90;;
75550;SDS011;65071;53.082;18.218;2023-06-22T14:12:54;3.00;;;1.30;;
75550;SDS011;65071;53.082;18.218;2023-06-22T14:15:21;2.50;;;1.70;;
75550;SDS011;65071;53.082;18.218;2023-06-22T14:17:47;3.10;;;2.10;;
75550;SDS011;65071;53.082;18.218;2023-06-22T14:20:14;2.00;;;1.60;;
75550;SDS011;65071;53.082;18.218;2023-06-22T14:22:41;1.70;;;1.50;;
75550;SDS011;65071;53.082;18.218;2023-06-22T14:25:08;1.40;;;1.30;;
75550;SDS011;65071;53.082;18.218;2023-06-22T14:27:35;1.90;;;1.50;;
75550;SDS011;65071;53.082;18.218;2023-06-22T14:30:01;3.10;;;1.40;;
75550;SDS011;65071;53.082;18.218;2023-06-22T14:32:28;2.70;;;1.60;;
75550;SDS011;65071;53.082;18.218;2023-06-22T14:34:56;5.50;;;2.90;;
75550;SDS011;65071;53.082;18.218;2023-06-22T14:37:23;2.90;;;1.90;;
75550;SDS011;65071;53.082;18.218;2023-06-22T14:39:49;1.90;;;1.70;;
75550;SDS011;65071;53.082;18.218;2023-06-22T14:42:16;3.10;;;1.90;;
75550;SDS011;65071;53.082;18.218;2023-06-22T14:44:42;3.20;;;1.80;;
75550;SDS011;65071;53.082;18.218;2023-06-22T14:47:09;3.20;;;1.80;;
75550;SDS011;65071;53.082;18.218;2023-06-22T14:49:35;1.90;;;1.70;;
75550;SDS011;65071;53.082;18.218;2023-06-22T14:52:02;3.20;;;1.90;;
75550;SDS011;65071;53.082;18.218;2023-06-22T14:54:29;3.20;;;1.50;;
75550;SDS011;65071;53.082;18.218;2023-06-22T14:56:55;2.70;;;1.60;;
75550;SDS011;65071;53.082;18.218;2023-06-22T14:59:22;2.30;;;1.80;;